Wheeler Observed Data For Previous 48 Hours

Caption
Day and Hour Reservoir Elevation (behind dam)* Tailwater Elevation (below dam)* Average Hourly Discharge*
1/16/2018 1 AM CST 551.90 505.36 19,032
1/16/2018 2 AM CST 551.93 505.32 18,999
1/16/2018 3 AM CST 551.90 505.32 19,016
1/16/2018 4 AM CST 551.87 505.38 28,410
1/16/2018 5 AM CST 551.86 505.38 37,617
1/16/2018 6 AM CST 551.80 505.43 46,802
1/16/2018 7 AM CST 551.79 505.53 47,736
1/16/2018 8 AM CST 551.76 505.54 47,786
1/16/2018 9 AM CST 551.69 505.50 47,772
1/16/2018 10 AM CST 551.70 505.38 38,114
1/16/2018 11 AM CST 551.71 505.43 37,760
1/16/2018 12 PM CST 551.78 505.33 29,042
1/16/2018 1 PM CST 551.86 505.29 19,590
1/16/2018 2 PM CST 551.88 505.21 19,165
1/16/2018 3 PM CST 551.84 505.35 19,329
1/16/2018 4 PM CST 551.84 505.33 36,758
1/16/2018 5 PM CST 551.74 505.67 48,368
1/16/2018 6 PM CST 551.76 505.54 60,292
1/16/2018 7 PM CST 551.70 505.51 60,356
1/16/2018 8 PM CST 551.65 505.63 60,205
1/16/2018 9 PM CST 551.60 505.56 60,246
1/16/2018 10 PM CST 551.61 505.48 47,826
1/16/2018 11 PM CST 551.65 505.44 37,953
1/17/2018 12 AM CST 551.72 505.36 29,112
1/17/2018 1 AM CST 551.75 505.36 28,484
1/17/2018 2 AM CST 551.75 505.41 28,482
1/17/2018 3 AM CST 551.76 505.47 28,535
1/17/2018 4 AM CST 551.74 505.51 39,628
1/17/2018 5 AM CST 551.70 505.73 52,299
1/17/2018 6 AM CST 551.59 505.69 63,338
1/17/2018 7 AM CST 551.51 505.93 72,413
1/17/2018 8 AM CST 551.42 505.95 73,361
1/17/2018 9 AM CST 551.36 505.93 73,112
1/17/2018 10 AM CST 551.42 505.55 59,604
1/17/2018 11 AM CST 551.47 505.55 37,786
1/17/2018 12 PM CST 551.50 505.62 27,148
1/17/2018 1 PM CST 551.50 505.45 18,800
1/17/2018 2 PM CST 551.55 505.47 18,794
1/17/2018 3 PM CST 551.58 505.47 18,871
1/17/2018 4 PM CST 551.59 505.42 28,107
1/17/2018 5 PM CST 551.55 505.52 39,103
1/17/2018 6 PM CST 551.51 505.70 52,657
1/17/2018 7 PM CST 551.48 505.66 63,359
1/17/2018 8 PM CST 551.42 505.72 63,390
1/17/2018 9 PM CST 551.36 505.75 63,503
1/17/2018 10 PM CST 551.37 505.61 50,924
1/17/2018 11 PM CST 551.41 505.56 37,952
1/18/2018 12 AM CST 551.41 505.64 37,746
1/18/2018 1 AM CST 551.41 505.63 50,297
1/18/2018 2 AM CST 551.43 505.70 50,459
1/18/2018 3 AM CST 551.39 505.70 50,490
1/18/2018 4 AM CST 551.34 505.80 62,716
1/18/2018 5 AM CST 551.28 505.95 63,185

Elevations are in feet above sea level. Discharges are in cubic feet per second and are reported at the end of the hour.